Temperatura - Umidità - Pioggia orarie del 22-10-2019

Intensità - Direzione vento orarie del 22-10-2019

Dati orari da stazione meteo del 22-10-2019

Nome Stazione Data Ora Temperatura [°C] Umidità [%] Pioggia [mm] Intensità vento[km/h] Direzione vento [°]
Savigliano 21-10-2019 02:00 14.4 96 0 0.4 300
Savigliano 21-10-2019 03:00 14.4 96.9 0.1 0.4 287
Savigliano 21-10-2019 04:00 14.3 97 0.5 1.8 254
Savigliano 21-10-2019 05:00 13.9 97 0 0.7 232
Savigliano 21-10-2019 06:00 13.5 97 0 1.4 231
Savigliano 21-10-2019 07:00 14.2 97.3 0 2.9 59
Savigliano 21-10-2019 08:00 14.3 97.3 0.1 1.1 224
Savigliano 21-10-2019 09:00 14.2 97.4 0 1.1 220
Savigliano 21-10-2019 10:00 14.3 97.5 0 1.4 194
Savigliano 21-10-2019 11:00 14.8 97.6 0 0 199
Savigliano 21-10-2019 12:00 15.1 97.6 0 0 242
Savigliano 21-10-2019 13:00 14.3 97.4 0 0.4 247
Savigliano 21-10-2019 14:00 14.6 97.2 0 1.1 323
Savigliano 21-10-2019 15:00 14.6 94.1 0 0.7 340
Savigliano 21-10-2019 16:00 14.6 92.6 0 0 338
Savigliano 21-10-2019 17:00 14.6 92.2 0 0 339
Savigliano 21-10-2019 18:00 14.6 92.4 0 0.4 327
Savigliano 21-10-2019 19:00 14.4 92.4 0 0.4 317
Savigliano 21-10-2019 20:00 14.8 92.8 0 0.7 298
Savigliano 21-10-2019 21:00 14.2 92.8 0 0.4 272
Savigliano 21-10-2019 22:00 14.5 93.2 0 1.1 274
Savigliano 21-10-2019 23:00 15.2 93.7 0 0.7 292
Savigliano 22-10-2019 00:00 15.2 93.7 0 0.4 276
Savigliano 22-10-2019 01:00 15.2 93.9 0 0.7 264
Savigliano 22-10-2019 02:00 15 94.1 0 1.1 212
Savigliano 22-10-2019 03:00 14.9 94.2 0 0 231
Savigliano 22-10-2019 04:00 15.1 94 0 0 231
Savigliano 22-10-2019 05:00 15 93.7 0 0 232
Savigliano 22-10-2019 06:00 15 93.6 0 0 231
Savigliano 22-10-2019 07:00 14.9 93.6 0 0.4 229
Savigliano 22-10-2019 08:00 14.6 93.7 0 0.7 239
Savigliano 22-10-2019 09:00 14.7 93.8 0 1.1 218
Savigliano 22-10-2019 10:00 14.9 93.8 0 0 151
Savigliano 22-10-2019 11:00 14.5 93.6 0 0 151
Savigliano 22-10-2019 12:00 14.5 93.3 0 0.4 180
Savigliano 21-10-2019 03:05 0 0 0.3 0 0
Savigliano 21-10-2019 03:10 0 0 0.1 0 0
Savigliano 21-10-2019 03:15 0 0 0.1 0 0
Savigliano 21-10-2019 03:20 0 0 0.1 0 0
Savigliano 21-10-2019 03:25 0 0 0.2 0 0
Savigliano 21-10-2019 03:30 0 0 0.2 0 0
Savigliano 21-10-2019 03:35 0 0 0.3 0 0
Savigliano 21-10-2019 03:40 0 0 0.3 0 0
Savigliano 21-10-2019 03:45 0 0 0.4 0 0
Savigliano 21-10-2019 03:50 0 0 0.4 0 0
Savigliano 21-10-2019 03:55 0 0 0.3 0 0
Savigliano 21-10-2019 04:05 0 0 0.5 0 0
Savigliano 21-10-2019 04:10 0 0 0.5 0 0
Savigliano 21-10-2019 04:15 0 0 0.5 0 0
Savigliano 21-10-2019 04:20 0 0 0.4 0 0
Savigliano 21-10-2019 04:25 0 0 0.1 0 0
Savigliano 21-10-2019 04:30 0 0 0.3 0 0
Savigliano 21-10-2019 04:35 0 0 0.3 0 0
Savigliano 21-10-2019 04:40 0 0 0.1 0 0
Savigliano 21-10-2019 07:35 0 0 0.1 0 0
Savigliano 21-10-2019 07:50 0 0 0.1 0 0
Savigliano 21-10-2019 07:55 0 0 0.2 0 0
Savigliano 21-10-2019 08:40 0 0 0.1 0 0
Savigliano 21-10-2019 09:10 0 0 0.1 0 0
Savigliano 21-10-2019 09:20 0 0 0.3 0 0
Savigliano 21-10-2019 09:25 0 0 0.2 0 0
Savigliano 21-10-2019 09:35 0 0 0.1 0 0
Savigliano 21-10-2019 10:55 0 0 0.1 0 0
Savigliano 22-10-2019 08:50 0 0 0.2 0 0
Savigliano 22-10-2019 08:55 0 0 0.1 0 0

Riassuntivo giornaliero del 22-10-2019